Nearby METAR Reports

 

YBBN - Brisbane Intl Ar, Australia
Distance from station: SE 37km
Updated: 14/08/2020 10:00
Mostly cloudy
Mostly cloudy
 Wind from NNW
Wind: NNW 7 km/h
Temperature: 18°C
Dew Point: 16°C
Humidity: 88%
Barometer: 1016 hPa
Clouds: Mostly cloudy
Visibility: 10 km
Cloud details: Mostly cloudy 274 m
2020/08/14 00:00 YBBN 140000Z 33004KT 290V360 9999 BKN009 18/16 Q1016
YAMB - Amberley, Australia
Distance from station: SSW 50km
Updated: 14/08/2020 10:00
Mist, Overcast
Mist, Overcast
 Wind from E
Wind: E 6 km/h
Temperature: 18°C
Dew Point: 16°C
Humidity: 88%
Barometer: 1016 hPa
Summary: Mist
Clouds: Overcast
Visibility: 10 km
Cloud details: Overcast 183 m
2020/08/14 00:00 YAMB 140000Z 10003KT 9999 3000N BR OVC006 18/16 Q1016
 
YBOK - Oakey (army/Civ), Australia
Distance from station: WSW 112km
Updated: 14/08/2020 10:00
Clear
Clear
 Wind from NE
Wind: NE 13 km/h
Temperature: 24°C
Dew Point: 11°C
Humidity: 44%
Barometer: 1016 hPa
Summary: Clear
Visibility: greater than 10 km
2020/08/14 00:00 YBOK 140000Z 04007KT 360V080 CAVOK 24/11 Q1016 NOSIG
YKRY - Kingaroy Arpt, Australia
Distance from station: NW 121km
Updated: 14/08/2020 10:00
Clear
Clear
 Wind from WNW
Wind: WNW 7 km/h
Temperature: 23°C
Dew Point: 14°C
Humidity: 57%
Barometer: 1016 hPa
Clouds: Clear
Visibility: 10 km
2020/08/14 00:00 YKRY 140000Z AUTO 30004KT 280V350 9999 // NCD 23/14 Q1016
 
YBCG - Coolangatta Aws, Australia
Distance from station: SSE 127km
Updated: 14/08/2020 10:00
Overcast
Overcast
 Wind from N
Wind: N 7 km/h
Temperature: 20°C
Dew Point: 16°C
Humidity: 78%
Barometer: 1016 hPa
Clouds: Overcast
Visibility: 10 km
Cloud details: Overcast 457 m
2020/08/14 00:00 YBCG 140000Z AUTO 01004KT 9999 // OVC015 20/16 Q1016
YLIS - Lismore Arpt, Australia
Distance from station: SSE 187km
Updated: 14/08/2020 10:07
Partly cloudy
Partly cloudy
 Wind from calm
Wind: Calm
Temperature: 20°C
Dew Point: 13°C
Humidity: 64%
Barometer: 1016 hPa
Clouds: Partly cloudy
Visibility: 10 km
Cloud details: Partly cloudy 305 m
2020/08/14 00:07 YLIS 140007Z AUTO 00000KT 9999 // SCT010 20/13 Q1016
 
YCAS - Casino Airport, Australia
Distance from station: S 189km
Updated: 14/08/2020 10:00

 Wind from E
Wind: E 7 km/h
Temperature: 20°C
Dew Point: 12°C
Humidity: 60%
Barometer: 1016 hPa
2020/08/14 00:00 YCAS 140000Z AUTO 09004KT 070V130 //// // ////// 20/12 Q1016
YBNA - Ballina Byron G., Australia
Distance from station: SSE 196km
Updated: 14/08/2020 10:00
Clear
Clear
 Wind from W
Wind: W 6 km/h
Temperature: 20°C
Dew Point: 17°C
Humidity: 83%
Barometer: 1016 hPa
Clouds: Clear
Visibility: 10 km
2020/08/14 00:00 YBNA 140000Z AUTO 28003KT 9999 // NCD 20/17 Q1016
 
YBUD - Bundaberg, Australia
Distance from station: NNW 260km
Updated: 14/08/2020 10:00
Clear
Clear
 Wind from N
Wind: N 31 km/h
Temperature: 23°C
Dew Point: 16°C
Humidity: 65%
Barometer: 1016 hPa
Clouds: Clear
Visibility: 10 km
2020/08/14 00:00 YBUD 140000Z AUTO 35017KT 9999 // NCD 23/16 Q1016
YGFN - Grafton Arpt, Australia
Distance from station: S 287km
Updated: 14/08/2020 10:00
Overcast
Overcast
 Wind from SW
Wind: SW 9 km/h
Temperature: 17°C
Dew Point: 14°C
Humidity: 83%
Barometer: 1017 hPa
Clouds: Overcast
Visibility: 10 km
Cloud details: Overcast 792 m
2020/08/14 00:00 YGFN 140000Z AUTO 23005KT 9999 // OVC026 17/14 Q1017